11R weather

Brenham Municipal Airport
Brenham, Texas, United States

Public forecast

Using degrees Fahrenheit for public forecast. Weather courtesy of forecast.io.

METAR (pilot weather report)

Retrieved 2019/05/21 10:15 UTC (0 seconds ago):

K11R 211015Z AUTO 17013G18KT 10SM BKN020 BKN024 OVC037 26/23 A2964 RMK AO2 T02610226

TAF (pilot weather forecast)

Closest forecast is Easterwood Field, 22.2 nm (41.1 km) N. Retrieved 2019/05/21 06:22 UTC (4 hours ago):

TAF KCLL 210520Z 2106/2206 16016G26KT P6SM SCT015 OVC025 FM211200 16016KT P6SM BKN025 OVC040 FM211500 18018KT P6SM VCSH BKN025 BKN035 FM211700 18015KT P6SM VCTS BKN035CB BKN050 TEMPO 2117/2119 4SM TSRA BKN025CB FM212100 22009KT P6SM SCT060 FM220000 16005KT P6SM SKC